Historique des mesures à Cassis (13260), France
Quotidien Résumé Avril 16, 2017 Unités:  Métrique    US   Métrique/US
« Précédent (Jour)
Suivant (Jour) »
Quotidien Hebdomadaire Mensuel Annuel Période au choix
  Maximum: Minimum: Moyenne:
Température: TemperatureC °C 12.9 °C 16.1 °C
Point de rosée: DewpointC °C 0.8 °C 5.6 °C
Humidité: Humidity % 33 % 48 %
Vitesse du vent: 0 km/h 14.5 km/h 32.3 km/h
Rafales: 0 km/h - -
Vent:- - SSW
Pression: PressurehPa hPa 1010.0 hPa -
Précipitations: 0.0 mm    
Historical Graphs
 
 
Mesures pour : Avril 16, 2017
Heure Temperature Point de rosée Pression Vent Vitesse du vent Rafales Humidité Pluie (par heure) Conditions
TemperatureC °C DewpointC °C PressurehPa hPa Calm     Humidity % HourlyPrecipMM mm SoftwareType W/m2
00:11 14.8 °C 5.1 °C 1012.1 hPa North 23 km/h 59.1 km/h 52 % 0.0 mm open2300-1.11 W/m2
01:11 14.1 °C 4.9 °C 1012.1 hPa North 42.2 km/h 42.2 km/h 54 % 0.0 mm open2300-1.11 W/m2
02:11 13.8 °C 5.2 °C 1012.1 hPa NNW 23.8 km/h 57.3 km/h 56 % 0.0 mm open2300-1.11 W/m2
03:11 13.6 °C 5.5 °C 1011.7 hPa WNW 29 km/h 29 km/h 58 % 0.0 mm open2300-1.11 W/m2
04:11 13.4 °C 5.8 °C 1011.4 hPa NW 50.5 km/h 50.5 km/h 60 % 0.0 mm open2300-1.11 W/m2
05:11 13.4 °C 6.0 °C 1012.4 hPa WSW 19.2 km/h 19.2 km/h 61 % 0.0 mm open2300-1.11 W/m2
06:11 13.4 °C 6.2 °C 1012.1 hPa North 23 km/h 23 km/h 62 % 0.0 mm open2300-1.11 W/m2
07:11 12.9 °C 6.2 °C 1013.1 hPa NNE 14.5 km/h 31.4 km/h 64 % 0.0 mm open2300-1.11 W/m2
08:11 13.5 °C 6.6 °C 1013.4 hPa North 14.5 km/h 14.5 km/h 63 % 0.0 mm open2300-1.11 W/m2
09:10 14.2 °C 6.8 °C 1013.1 hPa North 17.4 km/h 26.2 km/h 61 % 0.0 mm open2300-1.11 W/m2
10:11 15.3 °C 7.1 °C 1012.8 hPa North 33.6 km/h 54.9 km/h 58 % 0.0 mm open2300-1.11 W/m2
11:11 17.8 °C 7.5 °C 1012.4 hPa NW 52 km/h 62.6 km/h 51 % 0.0 mm open2300-1.11 W/m2
12:11 18.6 °C 7.3 °C 1012.1 hPa NW 55.7 km/h 55.7 km/h 48 % 0.0 mm open2300-1.11 W/m2
13:11 19.8 °C 7.5 °C 1011.7 hPa WNW 53.9 km/h 53.9 km/h 45 % 0.0 mm open2300-1.11 W/m2
14:11 20.4 °C 7.7 °C 1011.4 hPa NW 33.6 km/h 36 km/h 44 % 0.0 mm open2300-1.11 W/m2
15:11 20.8 °C 7.4 °C 1011.1 hPa NNW 27.7 km/h 38.8 km/h 42 % 0.0 mm open2300-1.11 W/m2
16:11 21.2 °C 7.4 °C 1010.7 hPa NNE 16.3 km/h 17.9 km/h 41 % 0.0 mm open2300-1.11 W/m2
17:11 20.9 °C 7.1 °C 1010.7 hPa WNW 57.9 km/h 57.9 km/h 41 % 0.0 mm open2300-1.11 W/m2
18:11 20.2 °C 6.2 °C 1010.4 hPa NW 27.2 km/h 49.2 km/h 40 % 0.0 mm open2300-1.11 W/m2
19:10 19.6 °C 5.7 °C 1010.0 hPa WNW 29.5 km/h 29.5 km/h 40 % 0.0 mm open2300-1.11 W/m2
20:11 18.5 °C 5.0 °C 1010.0 hPa NW 28.5 km/h 50.5 km/h 41 % 0.0 mm open2300-1.11 W/m2
21:11 18.1 °C 3.5 °C 1010.4 hPa NW 45.9 km/h 45.9 km/h 38 % 0.0 mm open2300-1.11 W/m2
22:11 17.9 °C 2.1 °C 1010.7 hPa NNW 47.3 km/h 47.3 km/h 35 % 0.0 mm open2300-1.11 W/m2
23:11 17.4 °C 0.8 °C 1010.7 hPa WNW 40.7 km/h 69.4 km/h 33 % 0.0 mm open2300-1.11 W/m2
Observations météo à CASSIS
WU-History script by Weather Underground - 1 mb